createdAt,value
2017-05-14T00:01:28.956Z,6.54
2017-05-14T00:03:57.260Z,6.08
2017-05-14T00:06:26.335Z,6.40
2017-05-14T00:08:54.654Z,5.74
2017-05-14T00:11:22.996Z,5.68
2017-05-14T00:13:51.312Z,6.36
2017-05-14T00:16:19.627Z,6.24
2017-05-14T00:18:47.941Z,5.90
2017-05-14T00:21:16.257Z,5.54
2017-05-14T00:23:44.586Z,5.12
2017-05-14T00:26:12.901Z,5.50
2017-05-14T00:28:41.346Z,5.42
2017-05-14T00:31:09.646Z,5.12
2017-05-14T00:33:38.814Z,5.14
2017-05-14T00:36:07.120Z,5.28
2017-05-14T00:38:36.195Z,5.18
2017-05-14T00:41:04.507Z,4.78
2017-05-14T00:43:33.570Z,5.32
2017-05-14T00:46:01.876Z,5.68
2017-05-14T00:48:30.929Z,4.30
2017-05-14T00:50:59.319Z,4.78
2017-05-14T00:53:27.628Z,4.70
2017-05-14T00:55:56.683Z,4.80
2017-05-14T00:58:25.078Z,5.10
2017-05-14T01:00:53.458Z,4.72
2017-05-14T01:03:21.835Z,5.28
2017-05-14T01:05:50.164Z,6.34
2017-05-14T01:08:18.462Z,5.36
2017-05-14T01:10:46.805Z,5.12
2017-05-14T01:13:15.876Z,5.40
2017-05-14T01:15:44.243Z,4.96
2017-05-14T01:18:12.634Z,5.46
2017-05-14T01:20:40.942Z,5.94
2017-05-14T01:23:09.991Z,6.30
2017-05-14T01:25:38.381Z,5.94
2017-05-14T01:28:06.762Z,5.28
2017-05-14T01:30:35.142Z,5.90
2017-05-14T01:33:03.482Z,6.18
2017-05-14T01:35:31.799Z,5.58
2017-05-14T01:38:00.151Z,6.20
2017-05-14T01:40:28.456Z,5.36
2017-05-14T01:42:56.847Z,5.50
2017-05-14T01:45:25.226Z,6.24
2017-05-14T01:47:53.610Z,5.60
2017-05-14T01:50:21.927Z,6.48
2017-05-14T01:52:50.237Z,6.28
2017-05-14T01:55:18.538Z,6.20
2017-05-14T01:57:46.915Z,6.24
2017-05-14T02:00:15.258Z,6.10
2017-05-14T02:02:43.574Z,7.06
2017-05-14T02:05:11.947Z,6.04
2017-05-14T02:07:40.305Z,6.50
2017-05-14T02:10:08.616Z,6.00
2017-05-14T02:12:36.922Z,7.08
2017-05-14T02:15:05.970Z,6.72
2017-05-14T02:17:34.282Z,6.62
2017-05-14T02:20:03.341Z,7.22
2017-05-14T02:22:31.742Z,7.58
2017-05-14T02:25:00.047Z,11.04
2017-05-14T02:27:29.223Z,12.30
2017-05-14T02:29:57.537Z,13.46
2017-05-14T02:32:25.886Z,13.52
2017-05-14T02:34:54.269Z,15.34
2017-05-14T02:37:23.354Z,15.62
2017-05-14T02:39:51.672Z,14.42
2017-05-14T02:42:20.018Z,16.98
2017-05-14T02:44:48.393Z,16.84
2017-05-14T02:47:16.715Z,17.72
2017-05-14T02:49:45.143Z,19.22
2017-05-14T02:52:13.530Z,17.70
2017-05-14T02:54:41.908Z,17.56
2017-05-14T02:57:10.218Z,18.86
2017-05-14T02:59:39.279Z,17.52
2017-05-14T03:02:07.593Z,17.90
2017-05-14T03:04:36.663Z,16.46
2017-05-14T03:07:05.045Z,15.62
2017-05-14T03:09:33.371Z,15.42
2017-05-14T03:12:01.803Z,13.40
2017-05-14T03:14:30.118Z,11.84
2017-05-14T03:16:59.152Z,11.10
2017-05-14T03:19:27.558Z,8.98
2017-05-14T03:21:55.907Z,7.98
2017-05-14T03:24:24.247Z,7.72
2017-05-14T03:26:53.304Z,6.80
2017-05-14T03:29:21.682Z,6.04
2017-05-14T03:31:50.074Z,5.04
2017-05-14T03:34:18.426Z,4.82
2017-05-14T03:36:46.814Z,4.76
2017-05-14T03:39:15.142Z,5.28
2017-05-14T03:41:43.487Z,4.76
2017-05-14T03:44:11.864Z,5.14
2017-05-14T03:46:40.164Z,4.34
2017-05-14T03:49:09.251Z,4.08
2017-05-14T03:51:37.555Z,3.50
2017-05-14T03:54:05.859Z,4.10
2017-05-14T03:56:34.268Z,4.10
2017-05-14T03:59:02.569Z,4.26
2017-05-14T04:01:31.614Z,4.28
2017-05-14T04:04:00.035Z,5.00
2017-05-14T04:06:28.359Z,5.40
2017-05-14T04:08:56.691Z,5.92
2017-05-14T04:11:25.071Z,5.34
2017-05-14T04:13:53.446Z,6.18
2017-05-14T04:16:21.827Z,5.58
2017-05-14T04:18:50.293Z,6.60
2017-05-14T04:21:18.685Z,9.26
2017-05-14T04:23:47.002Z,10.80
2017-05-14T04:26:16.055Z,10.54
2017-05-14T04:28:44.443Z,11.46
2017-05-14T04:31:12.822Z,11.18
2017-05-14T04:33:41.194Z,10.86
2017-05-14T04:36:09.598Z,11.50
2017-05-14T04:38:37.980Z,12.02
2017-05-14T04:41:07.045Z,13.24
2017-05-14T04:43:35.382Z,13.10
2017-05-14T04:46:03.700Z,14.30
2017-05-14T04:48:32.101Z,11.84
2017-05-14T04:51:00.485Z,14.30
2017-05-14T04:53:28.795Z,13.16
2017-05-14T04:55:57.105Z,14.82
2017-05-14T04:58:25.499Z,14.78
2017-05-14T05:00:53.802Z,14.88
2017-05-14T05:03:22.174Z,14.16
2017-05-14T05:05:50.554Z,15.14
2017-05-14T05:08:18.927Z,15.50
2017-05-14T05:10:47.311Z,15.40
2017-05-14T05:13:15.630Z,15.90
2017-05-14T05:15:43.940Z,15.80
2017-05-14T05:18:12.251Z,18.32
2017-05-14T05:20:40.631Z,18.50
2017-05-14T05:23:08.947Z,18.24
2017-05-14T05:25:37.259Z,19.40
2017-05-14T05:28:05.570Z,18.40
2017-05-14T05:30:33.939Z,18.82
2017-05-14T05:33:02.277Z,18.60
2017-05-14T05:35:30.588Z,19.52
2017-05-14T05:37:58.926Z,19.04
2017-05-14T05:40:27.263Z,21.26
2017-05-14T05:42:55.574Z,19.90
2017-05-14T05:45:23.886Z,19.02
2017-05-14T05:47:52.206Z,20.50
2017-05-14T05:50:20.571Z,18.86
2017-05-14T05:52:48.889Z,19.96
2017-05-14T05:55:17.245Z,21.18
2017-05-14T05:57:45.553Z,20.80
2017-05-14T06:00:13.857Z,20.60
2017-05-14T06:02:42.167Z,18.92
2017-05-14T06:05:10.547Z,20.90
2017-05-14T06:07:38.873Z,19.70
2017-05-14T06:10:07.303Z,20.76
2017-05-14T06:12:35.695Z,19.84
2017-05-14T06:15:04.022Z,21.24
2017-05-14T06:17:32.337Z,20.24
2017-05-14T06:20:00.736Z,18.84
2017-05-14T06:22:29.055Z,20.78
2017-05-14T06:24:57.390Z,19.92
2017-05-14T06:27:25.767Z,19.80
2017-05-14T06:29:54.147Z,18.30
2017-05-14T06:32:22.477Z,18.58
2017-05-14T06:34:50.804Z,19.64
2017-05-14T06:37:19.118Z,18.74
2017-05-14T06:39:47.443Z,17.48
2017-05-14T06:42:15.774Z,18.68
2017-05-14T06:44:44.118Z,17.80
2017-05-14T06:47:12.450Z,17.72
2017-05-14T06:49:40.767Z,17.68
2017-05-14T06:52:09.155Z,16.14
2017-05-14T06:54:37.477Z,15.84
2017-05-14T06:57:05.794Z,18.12
2017-05-14T06:59:34.114Z,16.26
2017-05-14T07:02:03.162Z,17.20
2017-05-14T07:04:31.483Z,16.62
2017-05-14T07:07:00.540Z,15.92
2017-05-14T07:09:28.916Z,16.30
2017-05-14T07:11:57.250Z,16.88
2017-05-14T07:14:26.430Z,17.92
2017-05-14T07:16:54.741Z,16.66
2017-05-14T07:19:23.090Z,16.00
2017-05-14T07:21:51.399Z,15.52
2017-05-14T07:24:19.698Z,15.10
2017-05-14T07:26:48.121Z,13.76
2017-05-14T07:29:17.213Z,14.80
2017-05-14T07:31:45.527Z,13.10
2017-05-14T07:34:13.866Z,12.96
2017-05-14T07:36:42.328Z,12.52
2017-05-14T07:39:10.649Z,12.22
2017-05-14T07:41:39.722Z,14.62
2017-05-14T07:44:08.106Z,13.34
2017-05-14T07:46:36.484Z,13.20
2017-05-14T07:49:04.824Z,13.86
2017-05-14T07:51:33.167Z,13.14
2017-05-14T07:54:02.223Z,13.46
2017-05-14T07:56:30.538Z,12.92
2017-05-14T07:58:59.644Z,13.56
2017-05-14T08:01:28.690Z,13.52
2017-05-14T08:03:56.999Z,13.58
2017-05-14T08:06:25.374Z,12.56
2017-05-14T08:08:53.757Z,11.96
2017-05-14T08:11:22.084Z,12.42
2017-05-14T08:13:50.513Z,12.68
2017-05-14T08:16:18.893Z,11.36
2017-05-14T08:18:47.392Z,13.50
2017-05-14T08:21:16.466Z,10.74
2017-05-14T08:23:44.847Z,11.26
2017-05-14T08:26:13.170Z,9.98
2017-05-14T08:28:41.510Z,10.60
2017-05-14T08:31:09.816Z,9.54
2017-05-14T08:33:38.188Z,9.68
2017-05-14T08:36:13.918Z,10.10
2017-05-14T08:38:43.011Z,11.72
2017-05-14T08:41:11.328Z,10.78
2017-05-14T08:43:39.655Z,10.60
2017-05-14T08:46:08.053Z,10.56
2017-05-14T08:48:36.373Z,9.08
2017-05-14T08:51:04.708Z,8.46
2017-05-14T08:53:33.216Z,8.88
2017-05-14T08:56:01.544Z,7.32
2017-05-14T08:58:29.943Z,8.04
2017-05-14T09:00:58.254Z,8.44
2017-05-14T09:03:26.577Z,7.48
2017-05-14T09:05:54.886Z,8.82
2017-05-14T09:08:23.266Z,8.46
2017-05-14T09:10:51.579Z,7.90
2017-05-14T09:13:19.917Z,7.88
2017-05-14T09:15:48.299Z,7.00
2017-05-14T09:18:16.623Z,6.86
2017-05-14T09:20:44.936Z,6.76
2017-05-14T09:23:13.259Z,5.40
2017-05-14T09:25:42.354Z,6.44
2017-05-14T09:28:11.434Z,6.52
2017-05-14T09:30:39.746Z,6.08
2017-05-14T09:33:08.054Z,5.26
2017-05-14T09:35:36.482Z,6.62
2017-05-14T09:38:04.858Z,5.86
2017-05-14T09:40:33.166Z,5.26
2017-05-14T09:43:01.476Z,5.72
2017-05-14T09:45:29.786Z,5.58
2017-05-14T09:47:58.086Z,4.78
2017-05-14T09:50:27.122Z,5.70
2017-05-14T09:53:08.439Z,6.54
2017-05-14T09:55:36.822Z,7.20
2017-05-14T09:58:05.155Z,7.42
2017-05-14T10:00:33.458Z,7.18
2017-05-14T10:03:01.851Z,7.48
2017-05-14T10:05:30.226Z,7.70
2017-05-14T10:07:58.527Z,8.32
2017-05-14T10:10:26.834Z,6.72
2017-05-14T10:12:55.180Z,6.74
2017-05-14T10:15:23.516Z,6.66
2017-05-14T10:17:51.820Z,6.90
2017-05-14T10:20:20.210Z,6.96
2017-05-14T10:22:48.599Z,6.72
2017-05-14T10:25:16.942Z,8.10
2017-05-14T10:27:45.282Z,7.30
2017-05-14T10:30:14.355Z,6.76
2017-05-14T10:32:42.685Z,7.82
2017-05-14T10:35:11.098Z,6.22
2017-05-14T10:37:39.410Z,6.40
2017-05-14T10:40:08.470Z,5.72
2017-05-14T10:42:36.782Z,5.90
2017-05-14T10:45:05.957Z,5.76
2017-05-14T10:47:34.259Z,6.20
2017-05-14T10:50:03.336Z,5.30
2017-05-14T10:52:32.429Z,5.60
2017-05-14T10:55:00.806Z,5.68
2017-05-14T10:57:29.183Z,4.86
2017-05-14T10:59:57.567Z,5.08
2017-05-14T11:02:25.947Z,5.80
2017-05-14T11:04:54.261Z,5.42
2017-05-14T11:07:22.574Z,4.50
2017-05-14T11:09:50.887Z,5.48
2017-05-14T11:12:19.270Z,5.28
2017-05-14T11:14:47.642Z,5.10
2017-05-14T11:17:15.948Z,5.56
2017-05-14T11:19:45.006Z,4.88
2017-05-14T11:22:13.310Z,5.72
2017-05-14T11:24:41.670Z,6.82
2017-05-14T11:27:10.075Z,6.32
2017-05-14T11:29:39.139Z,5.82
2017-05-14T11:32:07.448Z,6.66
2017-05-14T11:34:36.508Z,7.50
2017-05-14T11:39:58.740Z,6.00
2017-05-14T11:42:27.143Z,5.68
2017-05-14T11:44:55.543Z,6.36
2017-05-14T11:47:23.847Z,6.76
2017-05-14T11:49:52.919Z,5.90
2017-05-14T11:52:21.219Z,7.22
2017-05-14T11:54:50.306Z,7.10
2017-05-14T11:57:19.360Z,7.24
2017-05-14T11:59:47.779Z,8.18
2017-05-14T12:02:16.091Z,6.54
2017-05-14T12:04:44.423Z,5.88
2017-05-14T12:07:12.830Z,6.14
2017-05-14T12:09:41.995Z,6.14
2017-05-14T12:12:10.384Z,6.40
2017-05-14T12:14:38.754Z,6.50
2017-05-14T12:17:07.072Z,7.62
2017-05-14T12:19:36.121Z,7.02
2017-05-14T12:22:04.427Z,6.52
2017-05-14T12:24:32.743Z,6.74
2017-05-14T12:27:01.074Z,6.68
2017-05-14T12:29:29.454Z,6.74
2017-05-14T12:31:57.786Z,6.02
2017-05-14T12:34:26.108Z,5.98
2017-05-14T12:36:54.438Z,6.40
2017-05-14T12:39:22.751Z,8.40
2017-05-14T12:41:51.161Z,10.64
2017-05-14T12:44:19.465Z,8.80
2017-05-14T12:46:47.815Z,9.36
2017-05-14T12:49:16.120Z,9.62
2017-05-14T12:51:45.192Z,9.58
2017-05-14T12:54:13.536Z,10.76
2017-05-14T12:56:41.849Z,11.08
2017-05-14T12:59:11.030Z,10.58
2017-05-14T13:01:39.343Z,10.38
2017-05-14T13:04:08.419Z,11.70
2017-05-14T13:06:36.794Z,10.08
2017-05-14T13:09:05.140Z,8.30
2017-05-14T13:11:33.445Z,8.14
2017-05-14T13:14:01.780Z,8.54
2017-05-14T13:16:30.103Z,7.94
2017-05-14T13:18:58.402Z,7.44
2017-05-14T13:21:27.880Z,7.22
2017-05-14T13:23:56.280Z,7.60
2017-05-14T13:26:24.590Z,7.10
2017-05-14T13:28:52.909Z,7.16
2017-05-14T13:31:21.215Z,9.60
2017-05-14T13:33:49.533Z,9.80
2017-05-14T13:36:17.839Z,8.44
2017-05-14T13:38:46.138Z,7.86
2017-05-14T13:41:14.446Z,8.28
2017-05-14T13:43:43.495Z,7.12
2017-05-14T13:46:11.840Z,6.78
2017-05-14T13:48:40.175Z,6.42
2017-05-14T13:51:08.478Z,5.34
2017-05-14T13:53:36.797Z,6.10
2017-05-14T13:56:05.103Z,6.52
2017-05-14T13:58:33.420Z,5.14
2017-05-14T14:01:01.774Z,5.82
2017-05-14T14:03:30.086Z,5.78
2017-05-14T14:05:58.395Z,5.80
2017-05-14T14:08:26.794Z,4.98
2017-05-14T14:10:55.170Z,5.86
2017-05-14T14:13:23.573Z,6.42
2017-05-14T14:15:51.936Z,5.76
2017-05-14T14:18:20.291Z,5.20
2017-05-14T14:20:48.683Z,5.04
2017-05-14T14:23:17.006Z,5.20
2017-05-14T14:25:46.078Z,4.80
2017-05-14T14:28:14.470Z,5.32
2017-05-14T14:30:43.550Z,5.58
2017-05-14T14:33:11.853Z,5.78
2017-05-14T14:35:40.931Z,5.22
2017-05-14T14:38:09.225Z,4.70
2017-05-14T14:40:38.315Z,4.92
2017-05-14T14:43:06.614Z,5.82
2017-05-14T14:45:34.940Z,5.58
2017-05-14T14:48:03.261Z,5.52
2017-05-14T14:50:32.330Z,5.80
2017-05-14T14:53:00.661Z,5.38
2017-05-14T14:55:28.983Z,6.30
2017-05-14T14:57:57.369Z,6.10
2017-05-14T15:00:25.675Z,5.52
2017-05-14T15:02:54.848Z,5.78
2017-05-14T15:05:23.226Z,5.56
2017-05-14T15:07:51.608Z,5.58
2017-05-14T15:10:19.934Z,5.80
2017-05-14T15:12:48.312Z,5.22
2017-05-14T15:15:16.644Z,4.90
2017-05-14T15:17:44.949Z,5.78
2017-05-14T15:20:14.026Z,6.16
2017-05-14T15:22:42.369Z,5.28
2017-05-14T15:25:10.684Z,5.32
2017-05-14T15:27:38.989Z,5.62
2017-05-14T15:30:07.337Z,5.56
2017-05-14T15:32:35.648Z,5.56
2017-05-14T15:35:03.989Z,6.10
2017-05-14T15:37:32.369Z,5.28
2017-05-14T15:40:00.748Z,7.28
2017-05-14T15:42:29.180Z,7.98
2017-05-14T15:44:57.471Z,5.02
2017-05-14T15:47:25.777Z,5.32
2017-05-14T15:49:54.170Z,5.66
2017-05-14T15:52:22.479Z,8.92
2017-05-14T15:54:51.546Z,12.24
2017-05-14T15:57:19.862Z,5.84
2017-05-14T15:59:48.188Z,5.76
2017-05-14T16:02:16.583Z,4.26
2017-05-14T16:04:44.891Z,4.52
2017-05-14T16:07:13.205Z,4.50
2017-05-14T16:09:41.510Z,4.38
2017-05-14T16:12:09.818Z,4.40
2017-05-14T16:14:38.887Z,4.30
2017-05-14T16:17:07.261Z,4.60
2017-05-14T16:19:35.635Z,5.02
2017-05-14T16:22:03.958Z,4.58
2017-05-14T16:24:33.030Z,4.10
2017-05-14T16:27:01.403Z,4.10
2017-05-14T16:29:29.786Z,5.10
2017-05-14T16:31:58.144Z,4.32
2017-05-14T16:34:26.470Z,4.68
2017-05-14T16:36:55.517Z,4.40
2017-05-14T16:39:23.930Z,4.52
2017-05-14T16:41:52.304Z,4.08
2017-05-14T16:47:16.243Z,3.96
2017-05-14T16:49:44.542Z,3.88
2017-05-14T16:52:12.956Z,4.18
2017-05-14T16:54:41.342Z,4.06
2017-05-14T16:57:09.653Z,4.00
2017-05-14T16:59:38.042Z,3.86
2017-05-14T17:02:06.333Z,3.90
2017-05-14T17:04:34.636Z,3.32
2017-05-14T17:07:03.027Z,3.94
2017-05-14T17:09:31.390Z,3.52
2017-05-14T17:11:59.787Z,3.88
2017-05-14T17:14:28.083Z,3.50
2017-05-14T17:16:56.437Z,3.70
2017-05-14T17:19:24.733Z,3.60
2017-05-14T17:21:53.046Z,3.56
2017-05-14T17:24:21.362Z,3.24
2017-05-14T17:26:49.772Z,3.80
2017-05-14T17:29:18.074Z,3.60
2017-05-14T17:31:46.519Z,3.38
2017-05-14T17:34:14.900Z,4.02
2017-05-14T17:36:43.277Z,3.54
2017-05-14T17:39:11.651Z,3.54
2017-05-14T17:41:40.035Z,3.40
2017-05-14T17:44:08.419Z,3.46
2017-05-14T17:46:36.753Z,3.56
2017-05-14T17:49:05.056Z,3.54
2017-05-14T17:51:33.381Z,3.74
2017-05-14T17:54:02.455Z,3.70
2017-05-14T17:56:30.753Z,3.10
2017-05-14T17:58:59.860Z,3.60
2017-05-14T18:01:28.923Z,3.40
2017-05-14T18:03:57.283Z,3.36
2017-05-14T18:06:25.594Z,3.48
2017-05-14T18:08:53.958Z,3.44
2017-05-14T18:11:22.335Z,3.40
2017-05-14T18:13:50.633Z,4.18
2017-05-14T18:16:18.950Z,3.26
2017-05-14T18:18:47.282Z,3.44
2017-05-14T18:21:15.659Z,3.74
2017-05-14T18:23:43.972Z,3.50
2017-05-14T18:26:12.315Z,3.70
2017-05-14T18:28:40.691Z,4.40
2017-05-14T18:31:09.079Z,3.64
2017-05-14T18:33:37.453Z,3.62
2017-05-14T18:36:05.759Z,3.66
2017-05-14T18:38:34.826Z,4.54
2017-05-14T18:41:03.149Z,4.66
2017-05-14T18:43:31.454Z,3.90
2017-05-14T18:45:59.753Z,3.60
2017-05-14T18:48:28.143Z,3.72
2017-05-14T18:50:56.470Z,3.54
2017-05-14T18:53:24.806Z,3.52
2017-05-14T18:55:53.120Z,3.38
2017-05-14T18:58:21.439Z,3.70
2017-05-14T19:00:49.746Z,3.48
2017-05-14T19:03:18.812Z,3.50
2017-05-14T19:05:47.121Z,3.12
2017-05-14T19:08:15.445Z,2.96
2017-05-14T19:10:43.743Z,3.28
2017-05-14T19:13:12.147Z,3.02
2017-05-14T19:15:40.492Z,3.60
2017-05-14T19:18:08.819Z,3.52
2017-05-14T19:20:37.165Z,3.02
2017-05-14T19:23:05.570Z,3.32
2017-05-14T19:25:33.883Z,3.50
2017-05-14T19:28:02.226Z,3.60
2017-05-14T19:30:30.603Z,3.32
2017-05-14T19:32:58.982Z,3.24
2017-05-14T19:35:27.358Z,3.24
2017-05-14T19:37:55.667Z,3.84
2017-05-14T19:40:24.719Z,3.24
2017-05-14T19:42:53.028Z,4.02
2017-05-14T19:45:21.346Z,3.20
2017-05-14T19:47:49.677Z,3.84
2017-05-14T19:50:18.050Z,3.46
2017-05-14T19:52:46.433Z,3.24
2017-05-14T19:55:14.751Z,3.80
2017-05-14T19:57:43.058Z,3.80
2017-05-14T20:00:11.471Z,3.42
2017-05-14T20:02:39.840Z,3.58
2017-05-14T20:05:09.047Z,4.00
2017-05-14T20:07:37.348Z,3.72
2017-05-14T20:10:06.424Z,3.92
2017-05-14T20:12:34.794Z,5.00
2017-05-14T20:15:03.111Z,4.32
2017-05-14T20:17:32.178Z,4.62
2017-05-14T20:20:00.562Z,4.10
2017-05-14T20:22:28.882Z,3.74
2017-05-14T20:24:57.200Z,4.26
2017-05-14T20:27:25.502Z,3.68
2017-05-14T20:29:53.810Z,3.92
2017-05-14T20:32:22.238Z,3.56
2017-05-14T20:34:50.628Z,3.38
2017-05-14T20:37:18.951Z,3.94
2017-05-14T20:39:47.286Z,3.36
2017-05-14T20:42:15.674Z,3.88
2017-05-14T20:44:44.146Z,3.64
2017-05-14T20:47:12.448Z,3.64
2017-05-14T20:49:41.507Z,3.78
2017-05-14T20:52:09.816Z,3.76
2017-05-14T20:54:38.126Z,3.42
2017-05-14T20:57:06.467Z,4.34
2017-05-14T20:59:34.838Z,4.72
2017-05-14T21:02:03.157Z,5.06
2017-05-14T21:04:31.484Z,4.20
2017-05-14T21:06:59.870Z,4.58
2017-05-14T21:09:28.258Z,4.34
2017-05-14T21:11:56.642Z,4.44
2017-05-14T21:14:25.022Z,4.42
2017-05-14T21:16:53.335Z,4.72
2017-05-14T21:19:21.686Z,4.04
2017-05-14T21:21:50.009Z,5.00
2017-05-14T21:24:18.313Z,4.80
2017-05-14T21:26:46.626Z,4.88
2017-05-14T21:29:15.719Z,5.46
2017-05-14T21:31:44.088Z,5.18
2017-05-14T21:34:12.457Z,5.90
2017-05-14T21:36:40.759Z,5.02
2017-05-14T21:39:09.078Z,6.62
2017-05-14T21:41:37.406Z,5.42
2017-05-14T21:44:05.715Z,5.76
2017-05-14T21:46:34.787Z,6.32
2017-05-14T21:49:03.095Z,6.86
2017-05-14T21:51:31.439Z,6.88
2017-05-14T21:53:59.791Z,6.80
2017-05-14T21:56:28.151Z,6.52
2017-05-14T21:58:56.522Z,6.30
2017-05-14T22:01:30.530Z,6.78
2017-05-14T22:03:58.874Z,7.02
2017-05-14T22:06:27.246Z,6.90
2017-05-14T22:08:55.626Z,6.86
2017-05-14T22:11:24.011Z,8.06
2017-05-14T22:13:52.386Z,6.72
2017-05-14T22:16:20.707Z,7.16
2017-05-14T22:18:49.042Z,7.88
2017-05-14T22:21:17.419Z,8.58
2017-05-14T22:23:45.798Z,7.88
2017-05-14T22:26:14.111Z,7.22
2017-05-14T22:28:43.162Z,7.82
2017-05-14T22:31:11.484Z,8.26
2017-05-14T22:33:40.537Z,8.60
2017-05-14T22:36:08.851Z,8.38
2017-05-14T22:38:37.895Z,7.26
2017-05-14T22:41:06.234Z,7.84
2017-05-14T22:43:35.304Z,7.92
2017-05-14T22:46:03.608Z,7.40
2017-05-14T22:48:32.675Z,8.36
2017-05-14T22:51:00.979Z,7.68
2017-05-14T22:53:30.048Z,7.14
2017-05-14T22:55:58.347Z,8.46
2017-05-14T22:58:26.714Z,8.40
2017-05-14T23:00:55.031Z,7.78
2017-05-14T23:03:23.376Z,7.58
2017-05-14T23:05:51.698Z,8.00
2017-05-14T23:08:33.339Z,8.46
2017-05-14T23:11:01.663Z,7.80
2017-05-14T23:13:29.999Z,7.76
2017-05-14T23:15:58.375Z,7.46
2017-05-14T23:18:26.680Z,7.52
2017-05-14T23:20:55.729Z,8.38
2017-05-14T23:23:24.050Z,9.08
2017-05-14T23:25:53.123Z,8.76
2017-05-14T23:28:21.502Z,8.82
2017-05-14T23:30:49.855Z,8.52
2017-05-14T23:33:18.166Z,9.90
2017-05-14T23:35:46.495Z,8.62
2017-05-14T23:38:14.794Z,7.74
2017-05-14T23:40:43.192Z,8.90
2017-05-14T23:43:11.578Z,9.14
2017-05-14T23:45:39.966Z,8.72
2017-05-14T23:48:08.342Z,9.34
2017-05-14T23:50:36.722Z,9.18
2017-05-14T23:53:05.151Z,9.80
2017-05-14T23:55:33.479Z,10.40
2017-05-14T23:58:01.859Z,10.36
